Time;durP1;ratioP1;P1;durP2;ratioP2;P2;SDS_P1;SDS_P2;PMS_P1;PMS_P2;Temp;Humidity;BMP_temperature;BMP_pressure;BME280_temperature;BME280_humidity;BME280_pressure;Samples;Min_cycle;Max_cycle;Signal;HPM_P1;HPM_P2
2022/11/24 00:00:28;;;;;;;0.00;0.00;;;;;;;6.97;99.97;98774.53;6210463;23;20869;-76
2022/11/24 00:02:54;;;;;;;3.92;1.75;;;;;;;6.94;100.00;98769.69;6217304;23;20016;-75
2022/11/24 00:05:21;;;;;;;0.00;0.00;;;;;;;6.92;100.00;98782.72;6215983;23;20445;-77
2022/11/24 00:07:52;;;;;;;0.08;0.08;;;;;;;6.70;100.00;98764.94;6169309;23;20050;-76
2022/11/24 00:10:17;;;;;;;0.00;0.00;;;;;;;6.59;100.00;98763.38;6245117;22;20050;-77
2022/11/24 00:12:43;;;;;;;0.00;0.00;;;;;;;6.56;100.00;98786.47;6247335;22;20419;-77
2022/11/24 00:15:09;;;;;;;0.00;0.00;;;;;;;6.45;100.00;98783.00;6253428;22;20050;-78
2022/11/24 00:17:34;;;;;;;0.00;0.00;;;;;;;6.34;100.00;98773.28;6271039;22;20015;-77
2022/11/24 00:20:00;;;;;;;0.00;0.00;;;;;;;6.19;100.00;98766.00;6251366;22;20299;-77
2022/11/24 00:22:25;;;;;;;0.00;0.00;;;;;;;6.28;100.00;98796.09;6246401;22;20043;-76
2022/11/24 00:24:50;;;;;;;0.03;0.03;;;;;;;6.26;100.00;98792.84;6274688;22;20469;-78
2022/11/24 00:27:16;;;;;;;0.00;0.00;;;;;;;6.21;100.00;98801.81;6271432;22;20004;-77
2022/11/24 00:29:41;;;;;;;0.00;0.00;;;;;;;6.11;100.00;98818.94;6240764;22;20014;-76
2022/11/24 00:32:07;;;;;;;0.00;0.00;;;;;;;6.09;100.00;98817.63;6221757;22;20000;-76
2022/11/24 00:34:32;;;;;;;0.00;0.00;;;;;;;5.98;100.00;98822.22;6241070;22;20432;-75
2022/11/24 00:37:00;;;;;;;0.00;0.00;;;;;;;5.95;100.00;98826.28;6244601;22;20015;-74
2022/11/24 00:39:26;;;;;;;0.00;0.00;;;;;;;5.86;100.00;98817.06;6217168;22;20438;-76
2022/11/24 00:41:51;;;;;;;0.20;0.20;;;;;;;5.87;100.00;98832.28;6272493;22;20003;-76
2022/11/24 00:44:16;;;;;;;0.10;0.10;;;;;;;5.79;100.00;98832.81;6244067;22;20430;-75
2022/11/24 00:46:47;;;;;;;0.00;0.00;;;;;;;5.72;100.00;98824.97;6268507;22;20004;-75
2022/11/24 00:49:12;;;;;;;0.00;0.00;;;;;;;5.75;100.00;98838.00;6245814;22;20011;-76
2022/11/24 00:51:38;;;;;;;0.03;0.03;;;;;;;5.66;100.00;98834.19;6245234;22;20014;-75
2022/11/24 00:54:03;;;;;;;0.10;0.10;;;;;;;5.68;100.00;98842.88;6267598;22;20055;-76
2022/11/24 00:56:29;;;;;;;0.00;0.00;;;;;;;5.64;100.00;98852.63;6246516;22;20264;-74
2022/11/24 00:58:55;;;;;;;0.00;0.00;;;;;;;5.58;100.00;98840.97;6270556;22;20008;-77
2022/11/24 01:01:23;;;;;;;0.00;0.00;;;;;;;5.62;100.00;98854.78;6270979;22;20058;-77
2022/11/24 01:03:49;;;;;;;0.10;0.10;;;;;;;5.58;100.00;98859.16;6272624;22;20011;-76
2022/11/24 01:06:19;;;;;;;0.00;0.00;;;;;;;5.52;100.00;98852.91;6268897;22;20008;-76
2022/11/24 01:08:45;;;;;;;0.00;0.00;;;;;;;5.54;100.00;98863.50;6272160;22;20016;-78
2022/11/24 01:11:18;;;;;;;0.00;0.00;;;;;;;5.52;100.00;98857.50;6239765;22;20460;-77
2022/11/24 01:13:46;;;;;;;0.10;0.10;;;;;;;5.48;100.00;98848.31;6246154;22;20011;-76
2022/11/24 01:16:17;;;;;;;0.00;0.00;;;;;;;5.47;100.00;98854.81;6242500;22;19999;-77
2022/11/24 01:18:43;;;;;;;0.00;0.00;;;;;;;5.45;100.00;98865.91;6272352;22;20026;-76
2022/11/24 01:21:09;;;;;;;0.00;0.00;;;;;;;5.37;100.00;98859.16;6242067;22;20154;-78
2022/11/24 01:23:34;;;;;;;0.00;0.00;;;;;;;5.42;100.00;98877.31;6246135;22;20701;-77
2022/11/24 01:26:03;;;;;;;0.00;0.00;;;;;;;5.45;100.00;98903.03;6245076;22;20041;-77
2022/11/24 01:28:28;;;;;;;0.10;0.10;;;;;;;5.48;100.00;98907.97;6270410;22;20015;-76
2022/11/24 01:30:58;;;;;;;0.10;0.10;;;;;;;5.49;100.00;98906.84;6246180;22;20007;-77
2022/11/24 01:33:26;;;;;;;0.00;0.00;;;;;;;5.42;100.00;98910.66;6241605;22;20000;-77
2022/11/24 01:35:52;;;;;;;0.10;0.10;;;;;;;5.39;100.00;98916.59;6246376;22;20011;-75
2022/11/24 01:38:17;;;;;;;2.15;0.77;;;;;;;5.40;100.00;98923.66;6217795;22;20003;-76
2022/11/24 01:40:43;;;;;;;0.10;0.10;;;;;;;5.29;100.00;98916.59;6245875;22;20038;-77
2022/11/24 01:43:19;;;;;;;0.00;0.00;;;;;;;5.40;100.00;98934.50;6193076;22;20042;-77
2022/11/24 01:45:46;;;;;;;0.00;0.00;;;;;;;5.48;100.00;98948.63;6245386;22;20008;-76
2022/11/24 01:48:27;;;;;;;0.00;0.00;;;;;;;5.49;100.00;98942.09;6270735;22;20389;-77
2022/11/24 01:51:18;;;;;;;0.10;0.10;;;;;;;5.62;100.00;98936.16;6271769;22;20086;-76
2022/11/24 01:53:52;;;;;;;0.00;0.00;;;;;;;5.66;100.00;98931.81;6244874;22;20003;-76
2022/11/24 01:56:18;;;;;;;0.00;0.00;;;;;;;5.72;100.00;98941.59;6243856;22;19992;-77
2022/11/24 01:58:47;;;;;;;0.00;0.00;;;;;;;5.72;100.00;98952.47;6245711;22;20086;-77
2022/11/24 02:01:27;;;;;;;;;;;;;;;;;;;;;
2022/11/24 02:03:55;;;;;;;0.00;0.00;;;;;;;5.84;100.00;98982.03;6272379;22;20494;-77
2022/11/24 02:06:30;;;;;;;0.00;0.00;;;;;;;5.83;100.00;98979.59;6243444;22;20002;-77
2022/11/24 02:09:20;;;;;;;0.10;0.10;;;;;;;5.97;100.00;98975.25;6243625;22;20023;-77
2022/11/24 02:11:46;;;;;;;0.00;0.00;;;;;;;6.05;100.00;98985.59;6243557;22;20014;-76
2022/11/24 02:14:14;;;;;;;0.10;0.10;;;;;;;6.09;100.00;98989.41;6268741;22;19999;-77
2022/11/24 02:16:42;;;;;;;0.10;0.10;;;;;;;6.10;100.00;98991.03;6271343;22;20004;-76
2022/11/24 02:19:47;;;;;;;0.00;0.00;;;;;;;6.11;100.00;98994.56;6271134;22;20031;-76
2022/11/24 02:22:26;;;;;;;0.00;0.00;;;;;;;6.03;100.00;98984.22;6192920;22;20008;-77
2022/11/24 02:25:08;;;;;;;0.00;0.00;;;;;;;6.01;100.00;98987.22;6268948;22;20319;-77
2022/11/24 02:27:34;;;;;;;0.10;0.10;;;;;;;6.01;100.00;98994.56;6271190;22;20117;-77
2022/11/24 02:30:00;;;;;;;0.10;0.10;;;;;;;5.93;100.00;98995.88;6218251;22;20012;-77
2022/11/24 02:32:27;;;;;;;0.00;0.00;;;;;;;5.94;100.00;99000.19;6244923;22;20083;-76
2022/11/24 02:35:00;;;;;;;0.00;0.00;;;;;;;5.85;100.00;99005.34;6242559;22;20050;-76
2022/11/24 02:37:25;;;;;;;0.00;0.00;;;;;;;5.84;100.00;99003.75;6246782;22;20003;-76
2022/11/24 02:39:51;;;;;;;0.00;0.00;;;;;;;5.75;100.00;98995.31;6191355;22;20023;-77
2022/11/24 02:42:16;;;;;;;0.00;0.00;;;;;;;5.80;100.00;99023.50;6245542;22;20008;-76
2022/11/24 02:44:48;;;;;;;0.00;0.00;;;;;;;5.67;100.00;99020.25;6242737;22;20019;-76
2022/11/24 02:47:13;;;;;;;0.10;0.10;;;;;;;5.59;100.00;99034.31;6271164;22;20000;-75
2022/11/24 02:49:39;;;;;;;0.00;0.00;;;;;;;5.40;100.00;99032.13;6219541;22;20081;-76
2022/11/24 02:52:07;;;;;;;0.00;0.00;;;;;;;5.29;100.00;99033.16;6219247;22;20090;-74
2022/11/24 02:54:33;;;;;;;0.00;0.00;;;;;;;5.27;100.00;99031.78;6245718;22;20039;-77
2022/11/24 02:57:02;;;;;;;0.10;0.10;;;;;;;5.33;100.00;99036.97;6271367;22;20011;-77
2022/11/24 02:59:28;;;;;;;0.00;0.00;;;;;;;5.30;100.00;99032.06;6239827;22;20688;-76
2022/11/24 03:01:53;;;;;;;0.00;0.00;;;;;;;5.34;100.00;99037.78;6218519;22;20011;-77
2022/11/24 03:04:18;;;;;;;0.00;0.00;;;;;;;5.38;100.00;99039.69;6187505;22;20020;-76
2022/11/24 03:06:44;;;;;;;0.10;0.10;;;;;;;5.41;100.00;99041.06;6244981;22;20053;-77
2022/11/24 03:09:10;;;;;;;0.00;0.00;;;;;;;5.45;100.00;99041.31;6203780;23;20066;-77
2022/11/24 03:11:36;;;;;;;0.00;0.00;;;;;;;5.51;100.00;99045.69;6240904;23;20008;-77
2022/11/24 03:14:01;;;;;;;0.00;0.00;;;;;;;5.51;100.00;99038.38;6213267;23;20011;-76
2022/11/24 03:16:27;;;;;;;0.03;0.03;;;;;;;5.53;100.00;99046.22;6237055;23;20068;-77
2022/11/24 03:18:52;;;;;;;0.00;0.00;;;;;;;5.51;100.00;99048.41;6213122;23;20015;-75
2022/11/24 03:21:18;;;;;;;0.00;0.00;;;;;;;5.56;100.00;99051.13;6186850;23;20419;-76
2022/11/24 03:23:43;;;;;;;0.00;0.00;;;;;;;5.54;100.00;99053.28;6237169;23;20004;-77
2022/11/24 03:26:12;;;;;;;0.10;0.10;;;;;;;5.57;100.00;99058.19;6189609;23;20023;-78
2022/11/24 03:28:38;;;;;;;0.10;0.10;;;;;;;5.60;100.00;99063.06;6214712;23;20380;-76
2022/11/24 03:31:05;;;;;;;0.00;0.00;;;;;;;5.58;100.00;99059.81;6187298;23;20111;-76
2022/11/24 03:33:30;;;;;;;0.00;0.00;;;;;;;5.52;100.00;99066.28;6188650;23;20123;-77
2022/11/24 03:35:56;;;;;;;0.00;0.00;;;;;;;5.44;100.00;99069.53;6187484;23;20372;-76
2022/11/24 03:38:21;;;;;;;0.10;0.10;;;;;;;5.45;100.00;99068.44;6209350;23;20015;-75
2022/11/24 03:40:47;;;;;;;0.00;0.00;;;;;;;5.48;100.00;99070.63;6211361;23;20008;-78
2022/11/24 03:43:12;;;;;;;0.00;0.00;;;;;;;5.51;100.00;99053.84;6211713;23;20087;-76
2022/11/24 03:45:40;;;;;;;0.00;0.00;;;;;;;5.56;100.00;99061.97;6215288;23;20327;-77
2022/11/24 03:48:06;;;;;;;0.00;0.00;;;;;;;5.57;100.00;99058.19;6238040;23;20424;-76
2022/11/24 03:50:31;;;;;;;0.05;0.05;;;;;;;5.62;100.00;99066.31;6215117;23;20004;-76
2022/11/24 03:52:57;;;;;;;0.00;0.00;;;;;;;5.58;100.00;99070.69;6190406;23;20004;-75
2022/11/24 03:55:22;;;;;;;0.00;0.00;;;;;;;5.57;100.00;99074.47;6185922;23;20008;-77
2022/11/24 03:57:50;;;;;;;0.00;0.00;;;;;;;5.55;100.00;99065.78;6189314;23;20012;-76
2022/11/24 04:00:16;;;;;;;0.00;0.00;;;;;;;5.50;100.00;99073.88;6188298;23;20401;-77
2022/11/24 04:02:41;;;;;;;0.00;0.00;;;;;;;5.45;100.00;99073.84;6188495;23;20486;-77
2022/11/24 04:05:07;;;;;;;0.00;0.00;;;;;;;5.44;100.00;99069.53;6188640;23;20431;-75
2022/11/24 04:07:34;;;;;;;0.10;0.10;;;;;;;5.41;100.00;99077.09;6242288;23;20014;-75
2022/11/24 04:09:59;;;;;;;0.00;0.00;;;;;;;5.46;100.00;99073.63;6237873;22;20102;-76
2022/11/24 04:12:43;;;;;;;0.00;0.00;;;;;;;5.40;100.00;99080.06;6238786;22;20031;-77
2022/11/24 04:15:08;;;;;;;0.00;0.00;;;;;;;5.36;100.00;99085.22;6272276;22;20426;-74
2022/11/24 04:17:34;;;;;;;0.10;0.10;;;;;;;5.40;100.00;99080.06;6243267;22;20015;-76
2022/11/24 04:19:59;;;;;;;0.10;0.10;;;;;;;5.42;100.00;99095.00;6244911;22;20134;-76
2022/11/24 04:22:25;;;;;;;0.00;0.00;;;;;;;5.44;100.00;99088.50;6216809;22;20007;-75
2022/11/24 04:24:50;;;;;;;0.00;0.00;;;;;;;5.37;100.00;99092.28;6245878;22;20011;-78
2022/11/24 04:27:15;;;;;;;0.10;0.10;;;;;;;5.34;100.00;99095.50;6244749;22;20035;-76
2022/11/24 04:29:41;;;;;;;0.00;0.00;;;;;;;5.30;100.00;99099.84;6244850;22;20011;-77
2022/11/24 04:32:07;;;;;;;0.10;0.10;;;;;;;5.23;100.00;99101.97;6220465;22;20083;-76
2022/11/24 04:34:33;;;;;;;0.00;0.00;;;;;;;5.24;100.00;99103.59;6268521;22;20079;-77
2022/11/24 04:36:58;;;;;;;0.00;0.00;;;;;;;5.28;100.00;99104.69;6219135;22;20046;-77
2022/11/24 04:39:24;;;;;;;0.00;0.00;;;;;;;5.20;100.00;99105.22;6241852;22;20035;-77
2022/11/24 04:41:49;;;;;;;0.00;0.00;;;;;;;5.10;100.00;99097.03;6244342;22;20087;-77
2022/11/24 04:44:15;;;;;;;0.00;0.00;;;;;;;5.06;100.00;99100.22;6192807;22;20407;-76
2022/11/24 04:46:40;;;;;;;0.00;0.00;;;;;;;5.07;100.00;99099.16;6268628;22;20011;-77
2022/11/24 04:49:10;;;;;;;0.10;0.10;;;;;;;5.11;100.00;99098.63;6240387;22;20334;-77
2022/11/24 04:51:39;;;;;;;0.00;0.00;;;;;;;5.09;100.00;99098.91;6240002;22;20014;-76
2022/11/24 04:54:06;;;;;;;0.08;0.08;;;;;;;5.24;100.00;99109.00;6244509;22;20012;-76
2022/11/24 04:56:32;;;;;;;0.03;0.03;;;;;;;5.41;100.00;99104.22;6266617;22;20008;-76
2022/11/24 04:58:57;;;;;;;0.10;0.10;;;;;;;5.72;100.00;99108.94;6219152;22;20008;-76
2022/11/24 05:01:23;;;;;;;0.00;0.00;;;;;;;5.95;100.00;99122.03;6216256;22;20338;-77
2022/11/24 05:03:59;;;;;;;0.00;0.00;;;;;;;6.05;100.00;99112.34;6218837;22;20026;-77
2022/11/24 05:06:25;;;;;;;0.00;0.00;;;;;;;6.18;100.00;99111.81;6245596;22;20069;-76
2022/11/24 05:08:51;;;;;;;0.00;0.00;;;;;;;6.15;100.00;99111.53;6216404;22;20461;-76
2022/11/24 05:11:17;;;;;;;0.00;0.00;;;;;;;6.01;100.00;99112.03;6245099;22;20453;-78
2022/11/24 05:13:46;;;;;;;0.00;0.00;;;;;;;6.05;100.00;99106.91;6241061;22;20043;-76
2022/11/24 05:16:12;;;;;;;0.10;0.10;;;;;;;6.16;100.00;99105.00;6217361;22;20007;-77
2022/11/24 05:18:37;;;;;;;0.00;0.00;;;;;;;6.27;100.00;99122.97;6217422;22;20383;-78
2022/11/24 05:21:06;;;;;;;0.00;0.00;;;;;;;6.29;100.00;99118.06;6244325;22;20095;-76
2022/11/24 05:23:31;;;;;;;0.00;0.00;;;;;;;6.33;100.00;99121.88;6216962;22;20004;-76
2022/11/24 05:26:00;;;;;;;0.10;0.10;;;;;;;6.19;100.00;99101.75;6195096;22;20445;-77
2022/11/24 05:28:31;;;;;;;0.00;0.00;;;;;;;6.17;100.00;99120.22;6271102;22;20030;-77
2022/11/24 05:31:01;;;;;;;0.00;0.00;;;;;;;6.28;100.00;99127.31;6239395;22;20012;-77
2022/11/24 05:33:28;;;;;;;0.08;0.08;;;;;;;6.35;100.00;99121.59;6244840;22;20000;-77
2022/11/24 05:35:55;;;;;;;0.00;0.00;;;;;;;6.40;100.00;99122.44;6215455;22;20015;-77
2022/11/24 05:38:22;;;;;;;0.00;0.00;;;;;;;6.55;100.00;99127.03;6245210;22;19996;-78
2022/11/24 05:40:51;;;;;;;0.10;0.10;;;;;;;6.61;100.00;99130.59;6245515;22;20371;-77
2022/11/24 05:43:17;;;;;;;0.00;0.00;;;;;;;6.74;100.00;99140.91;6242311;22;20023;-77
2022/11/24 05:45:43;;;;;;;0.00;0.00;;;;;;;6.73;100.00;99143.88;6244588;22;20544;-77
2022/11/24 05:48:14;;;;;;;0.00;0.00;;;;;;;6.46;100.00;99118.63;6268240;22;20103;-78
2022/11/24 05:50:39;;;;;;;0.00;0.00;;;;;;;6.30;100.00;99125.13;6244368;22;20008;-76
2022/11/24 05:53:09;;;;;;;0.00;0.00;;;;;;;6.09;100.00;99130.53;6241026;22;20006;-78
2022/11/24 05:55:35;;;;;;;0.00;0.00;;;;;;;5.92;100.00;99138.84;6244045;22;19996;-78
2022/11/24 05:58:04;;;;;;;0.10;0.10;;;;;;;5.76;100.00;99129.84;6242572;22;20007;-76
2022/11/24 06:00:31;;;;;;;0.00;0.00;;;;;;;5.59;100.00;99121.94;6272207;22;20079;-77
2022/11/24 06:02:57;;;;;;;0.00;0.00;;;;;;;5.54;100.00;99137.34;6244704;22;20000;-78
2022/11/24 06:05:22;;;;;;;0.10;0.10;;;;;;;5.56;100.00;99137.91;6269222;22;20003;-77
2022/11/24 06:07:48;;;;;;;0.00;0.00;;;;;;;5.57;100.00;99144.97;6219294;22;20503;-77
2022/11/24 06:10:19;;;;;;;0.00;0.00;;;;;;;5.57;100.00;99145.78;6190238;23;20085;-77
2022/11/24 06:12:44;;;;;;;0.00;0.00;;;;;;;5.50;100.00;99128.13;6216019;23;20027;-77
2022/11/24 06:15:20;;;;;;;0.00;0.00;;;;;;;5.46;100.00;99130.56;6212514;23;20016;-78
2022/11/24 06:17:55;;;;;;;0.00;0.00;;;;;;;5.42;100.00;99138.38;6192218;23;20063;-78
2022/11/24 06:20:22;;;;;;;0.00;0.00;;;;;;;5.44;100.00;99140.03;6238375;23;20035;-77
2022/11/24 06:22:52;;;;;;;0.17;0.17;;;;;;;5.39;100.00;99130.78;6240782;23;20083;-78
2022/11/24 06:25:21;;;;;;;0.00;0.00;;;;;;;5.35;100.00;99128.88;6188158;23;20157;-76
2022/11/24 06:27:46;;;;;;;0.10;0.10;;;;;;;5.39;100.00;99132.69;6216411;23;20008;-76
2022/11/24 06:30:12;;;;;;;0.10;0.10;;;;;;;5.40;100.00;99132.41;6192228;23;20015;-76
2022/11/24 06:32:45;;;;;;;0.10;0.10;;;;;;;5.54;100.00;99148.22;6164245;23;20015;-75
2022/11/24 06:35:12;;;;;;;0.00;0.00;;;;;;;5.51;100.00;99140.59;6191845;23;20395;-78
2022/11/24 06:37:37;;;;;;;0.00;0.00;;;;;;;5.57;100.00;99151.19;6211796;23;20061;-77
2022/11/24 06:40:06;;;;;;;0.00;0.00;;;;;;;5.52;100.00;99136.78;6188891;23;20020;-77
2022/11/24 06:42:32;;;;;;;0.00;0.00;;;;;;;5.50;100.00;99128.13;6212362;23;20339;-77
2022/11/24 06:45:06;;;;;;;0.75;0.75;;;;;;;5.56;100.00;99132.47;6187159;23;20016;-77
2022/11/24 06:47:32;;;;;;;;;;;;;;;5.62;100.00;99147.69;6192758;23;20015;-75
2022/11/24 06:49:59;;;;;;;0.00;0.00;;;;;;;5.53;100.00;99133.00;6235401;23;19907;-76
2022/11/24 06:52:25;;;;;;;0.00;0.00;;;;;;;5.57;100.00;99142.25;6215157;23;20491;-75
2022/11/24 06:54:53;;;;;;;0.00;0.00;;;;;;;5.58;100.00;99146.59;6236907;23;20008;-79
2022/11/24 06:57:18;;;;;;;0.00;0.00;;;;;;;5.60;100.00;99137.09;6212902;23;20220;-77
2022/11/24 06:59:44;;;;;;;0.00;0.00;;;;;;;5.59;100.00;99137.38;6188018;23;20458;-78
2022/11/24 07:02:15;;;;;;;0.08;0.08;;;;;;;5.66;100.00;99143.38;6215436;23;20012;-75
2022/11/24 07:04:40;;;;;;;0.00;0.00;;;;;;;5.68;100.00;99138.50;6215312;23;20015;-76
2022/11/24 07:07:06;;;;;;;0.00;0.00;;;;;;;5.71;100.00;99127.13;6213882;23;20008;-79
2022/11/24 07:09:31;;;;;;;0.05;0.05;;;;;;;5.78;100.00;99118.72;6214194;23;20069;-76
2022/11/24 07:12:01;;;;;;;0.00;0.00;;;;;;;5.81;100.00;99101.09;6185433;23;20006;-75
2022/11/24 07:14:26;;;;;;;0.00;0.00;;;;;;;5.94;100.00;99111.44;6215105;23;20039;-77
2022/11/24 07:16:56;;;;;;;0.35;0.20;;;;;;;6.01;100.00;99122.91;6238960;23;20004;-78
2022/11/24 07:19:25;;;;;;;0.73;0.32;;;;;;;6.02;100.00;99121.81;6191023;23;20004;-80
2022/11/24 07:21:50;;;;;;;0.65;0.25;;;;;;;6.17;100.00;99131.09;6211382;23;20000;-77
2022/11/24 07:24:16;;;;;;;0.10;0.10;;;;;;;6.18;100.00;99105.59;6214489;23;20327;-78
2022/11/24 07:30:24;;;;;;;0.00;0.00;;;;;;;6.46;100.00;99118.63;6194380;23;20015;-79
2022/11/24 07:33:17;;;;;;;;;;;;;;;;;;;;;
2022/11/24 07:35:56;;;;;;;;;;;;;;;;;;;;;
2022/11/24 07:38:22;;;;;;;0.00;0.00;;;;;;;6.74;100.00;99102.88;6241519;23;20075;-79
2022/11/24 07:44:14;;;;;;;;;;;;;;;7.08;100.00;99118.59;6240928;23;20061;-79
2022/11/24 07:48:06;;;;;;;;;;;;;;;;;;;;;
2022/11/24 07:50:36;;;;;;;0.10;0.10;;;;;;;7.18;100.00;99093.28;6224181;23;20027;-80
2022/11/24 07:53:09;;;;;;;0.10;0.10;;;;;;;7.38;100.00;99100.56;6212391;23;20010;-81
2022/11/24 07:56:13;;;;;;;;;;;;;;;;;;;;;
2022/11/24 07:58:39;;;;;;;0.10;0.10;;;;;;;7.71;100.00;99114.59;6237425;23;20090;-81
2022/11/24 08:01:28;;;;;;;0.10;0.10;;;;;;;7.72;100.00;99116.22;6241692;23;20135;-78
2022/11/24 08:03:55;;;;;;;0.00;0.00;;;;;;;7.73;100.00;99117.84;6241428;23;20000;-78
2022/11/24 08:07:05;;;;;;;;;;;;;;;;;;;;;
2022/11/24 08:09:26;;;;;;;0.00;0.00;;;;;;;7.84;100.00;99122.16;6247782;22;20024;-79
2022/11/24 08:11:51;;;;;;;0.00;0.00;;;;;;;7.80;100.00;99118.34;6239678;22;20430;-77
2022/11/24 08:14:17;;;;;;;0.00;0.00;;;;;;;7.89;100.00;99125.94;6220214;22;20031;-80
2022/11/24 08:17:25;;;;;;;0.00;0.00;;;;;;;7.95;100.00;99138.44;6213552;22;20067;-79
2022/11/24 08:19:58;;;;;;;0.00;0.00;;;;;;;7.82;100.00;99115.34;6215201;22;20011;-79
2022/11/24 08:22:32;;;;;;;0.00;0.00;;;;;;;7.77;100.00;99109.91;6220453;22;20805;-79
2022/11/24 08:25:33;;;;;;;0.00;0.00;;;;;;;7.81;100.00;99114.56;6273030;22;20004;-78
2022/11/24 08:28:03;;;;;;;0.00;0.00;;;;;;;7.95;100.00;99130.25;6095490;23;20033;-81
2022/11/24 08:30:36;;;;;;;0.00;0.00;;;;;;;7.96;100.00;99121.00;6220215;22;20003;-79
2022/11/24 08:33:17;;;;;;;;;;;;;;;;;;;;;
2022/11/24 08:35:45;;;;;;;0.00;0.00;;;;;;;8.33;100.00;99130.59;6272715;22;20082;-79
2022/11/24 08:38:21;;;;;;;;;;;;;;;;;;;;;
2022/11/24 08:40:59;;;;;;;0.00;0.00;;;;;;;8.73;100.00;99129.50;6273688;22;20110;-78
2022/11/24 08:43:36;;;;;;;0.10;0.10;;;;;;;8.78;100.00;99109.56;6246508;22;20010;-79
2022/11/24 08:46:05;;;;;;;0.00;0.00;;;;;;;8.77;100.00;99097.00;6220819;22;20591;-78
2022/11/24 08:48:59;;;;;;;0.00;0.00;;;;;;;8.79;100.00;99097.56;6273515;22;20015;-77
2022/11/24 08:51:57;;;;;;;0.00;0.00;;;;;;;8.86;100.00;99100.78;6240160;22;20007;-78
2022/11/24 08:54:36;;;;;;;0.00;0.00;;;;;;;8.87;100.00;99099.66;6209270;22;20252;-79
2022/11/24 08:57:12;;;;;;;;;;;;;;;;;;;;;
2022/11/24 08:59:40;;;;;;;0.00;0.00;;;;;;;9.17;100.00;99105.91;6270885;22;20506;-76
2022/11/24 09:05:18;;;;;;;0.00;0.00;;;;;;;9.22;100.00;99080.50;6268295;22;20038;-78
2022/11/24 09:07:44;;;;;;;0.00;0.00;;;;;;;9.41;100.00;99080.53;6245161;22;20474;-78
2022/11/24 09:10:09;;;;;;;0.00;0.00;;;;;;;9.41;100.00;99075.09;6240439;22;20047;-79
2022/11/24 09:12:35;;;;;;;0.00;0.00;;;;;;;9.61;100.00;99079.50;6244005;22;20000;-78
2022/11/24 09:15:00;;;;;;;0.00;0.00;;;;;;;9.79;100.00;99084.16;6239513;22;20059;-78
2022/11/24 09:17:35;;;;;;;0.00;0.00;;;;;;;10.48;100.00;99091.09;6244956;22;20008;-78
2022/11/24 09:20:12;;;;;;;0.00;0.00;;;;;;;11.12;100.00;99090.56;6239617;22;20004;-79
2022/11/24 09:22:40;;;;;;;0.00;0.00;;;;;;;11.34;99.12;99079.72;6271149;22;20031;-79
2022/11/24 09:25:10;;;;;;;0.00;0.00;;;;;;;11.56;98.70;99080.13;6268380;22;20008;-77
2022/11/24 09:27:38;;;;;;;0.47;0.47;;;;;;;12.22;96.83;99088.84;6243810;22;20427;-78
2022/11/24 09:30:15;;;;;;;0.98;0.90;;;;;;;13.98;91.72;99079.56;6243943;22;20300;-78
2022/11/24 09:32:46;;;;;;;0.00;0.00;;;;;;;15.22;87.74;99073.63;6239024;22;20073;-78
2022/11/24 09:35:14;;;;;;;0.03;0.03;;;;;;;15.56;83.61;99086.41;6273565;22;20030;-78
2022/11/24 09:37:47;;;;;;;0.00;0.00;;;;;;;16.52;78.27;99083.00;6267238;22;20004;-78
2022/11/24 09:40:21;;;;;;;0.00;0.00;;;;;;;16.97;75.45;99091.69;6244521;22;20437;-77
2022/11/24 09:43:30;;;;;;;0.00;0.00;;;;;;;17.81;78.29;99094.06;6215543;22;20007;-77
2022/11/24 09:46:19;;;;;;;0.15;0.15;;;;;;;19.48;65.08;99103.91;6229697;22;20057;-78
2022/11/24 09:48:55;;;;;;;2.97;0.55;;;;;;;19.48;66.06;99078.19;6269830;22;19999;-79
2022/11/24 09:51:28;;;;;;;0.00;0.00;;;;;;;19.21;70.81;99080.66;6240105;22;20091;-78
2022/11/24 09:54:08;;;;;;;0.00;0.00;;;;;;;18.10;68.44;99075.59;6240889;22;20083;-78
2022/11/24 09:56:39;;;;;;;0.10;0.10;;;;;;;16.50;70.83;99067.91;6239843;22;20011;-79
2022/11/24 09:59:17;;;;;;;5.57;4.95;;;;;;;16.02;75.06;99059.88;6244485;22;20102;-79
2022/11/24 10:01:46;;;;;;;0.77;0.70;;;;;;;16.32;73.04;99070.03;6236866;22;20003;-78
2022/11/24 10:04:32;;;;;;;4.13;2.05;;;;;;;16.69;70.38;99067.41;6274065;22;20007;-78
2022/11/24 10:07:21;;;;;;;0.45;0.28;;;;;;;16.68;70.77;99063.84;6267098;22;20829;-78
2022/11/24 10:10:12;;;;;;;0.90;0.25;;;;;;;17.05;68.99;99049.38;6268484;22;20099;-78
2022/11/24 10:13:01;;;;;;;0.70;0.70;;;;;;;16.53;71.37;99051.50;6242712;22;20065;-81
2022/11/24 10:15:40;;;;;;;;;;;;;;;;;;;;;
2022/11/24 10:18:30;;;;;;;0.00;0.00;;;;;;;15.34;73.48;99040.66;6266087;22;20099;-80
2022/11/24 10:20:58;;;;;;;0.00;0.00;;;;;;;14.50;76.13;99046.56;6239034;22;20669;-81
2022/11/24 10:24:46;;;;;;;0.00;0.00;;;;;;;13.89;77.26;99024.59;6237549;22;20004;-78
2022/11/24 10:27:08;;;;;;;0.00;0.00;;;;;;;13.57;77.55;99021.16;6238507;22;20010;-78
2022/11/24 10:30:24;;;;;;;;;;;;;;;;;;;;;
2022/11/24 10:33:18;;;;;;;;;;;;;;;13.43;78.71;99027.59;6271560;22;20091;-79
2022/11/24 10:39:09;;;;;;;0.00;0.00;;;;;;;12.94;82.11;99026.75;6249842;22;19999;-79
2022/11/24 10:42:18;;;;;;;0.00;0.00;;;;;;;12.91;82.90;99022.69;6244149;22;20010;-76
2022/11/24 10:44:59;;;;;;;0.40;0.40;;;;;;;12.63;82.41;98989.16;6242950;22;20004;-77
2022/11/24 10:47:25;;;;;;;0.00;0.00;;;;;;;12.56;83.00;98994.28;6244302;22;20003;-78
2022/11/24 10:50:29;;;;;;;2.35;0.35;;;;;;;12.63;82.59;99000.13;6243949;22;20011;-82
2022/11/24 10:53:22;;;;;;;;;;;;;;;;;;;;;
2022/11/24 10:55:59;;;;;;;0.00;0.00;;;;;;;12.78;82.09;98990.69;6275111;22;20383;-80
2022/11/24 10:58:37;;;;;;;8.15;1.42;;;;;;;12.65;82.14;98997.88;6243214;22;20057;-80
2022/11/24 11:01:56;;;;;;;0.00;0.00;;;;;;;12.63;82.95;98993.81;6247969;22;20426;-78
2022/11/24 11:04:29;;;;;;;0.00;0.00;;;;;;;12.59;82.96;98974.47;6243682;22;20008;-79
2022/11/24 11:10:42;;;;;;;0.00;0.00;;;;;;;12.44;84.32;98956.50;6213950;23;20016;-79
2022/11/24 11:13:27;;;;;;;0.00;0.00;;;;;;;12.52;84.38;98955.72;6242753;23;20411;-79
2022/11/24 11:16:21;;;;;;;0.00;0.00;;;;;;;12.60;86.55;98951.41;6236487;23;20007;-80
2022/11/24 11:18:50;;;;;;;0.00;0.00;;;;;;;12.45;83.34;98918.91;6213418;23;20000;-80
2022/11/24 11:40:57;;;;;;;;;;;;;;;;;;;;;
2022/11/24 11:47:43;;;;;;;0.00;0.00;;;;;;;10.61;100.00;98877.13;6117715;23;20017;-77
2022/11/24 11:53:27;;;;;;;0.08;0.08;;;;;;;10.83;100.00;98886.53;6171952;23;20008;-78
2022/11/24 12:03:35;;;;;;;;;;;;;;;;;;;;;
2022/11/24 12:06:43;;;;;;;0.05;0.05;;;;;;;10.80;100.00;98851.59;6147419;23;20110;-78
2022/11/24 12:12:52;;;;;;;0.35;0.30;;;;;;;10.83;100.00;98856.44;6133620;23;20573;-77
2022/11/24 12:19:26;;;;;;;0.03;0.03;;;;;;;10.90;99.39;98821.28;6161122;23;20005;-79
2022/11/24 12:23:09;;;;;;;0.90;0.90;;;;;;;11.07;98.81;98819.81;6146229;23;20001;-78
2022/11/24 12:25:21;;;;;;;0.30;0.30;;;;;;;11.02;97.64;98806.28;6261111;22;20595;-79
2022/11/24 12:28:16;;;;;;;12.80;4.63;;;;;;;11.06;97.23;98812.75;6270923;22;19999;-80
2022/11/24 12:30:49;;;;;;;;;;;;;;;11.19;96.67;98806.44;6265703;22;20007;-78
2022/11/24 12:37:20;;;;;;;0.80;0.30;;;;;;;11.46;93.74;98812.91;6201211;23;20090;-80
2022/11/24 12:40:20;;;;;;;3.30;2.05;;;;;;;11.50;93.76;98786.53;6271832;22;20019;-79
2022/11/24 12:43:09;;;;;;;;;;;;;;;;;;;;;
2022/11/24 12:58:11;;;;;;;;;;;;;;;12.09;87.51;98783.66;6289363;22;20274;-78
2022/11/24 13:01:32;;;;;;;0.00;0.00;;;;;;;12.04;87.18;98740.75;6281329;22;19910;-80
2022/11/24 13:04:27;;;;;;;0.00;0.00;;;;;;;12.29;86.71;98754.06;6149385;23;20352;-79
2022/11/24 13:07:23;;;;;;;;;;;;;;;;;;;;;
2022/11/24 13:13:28;;;;;;;4.18;2.95;;;;;;;12.44;85.61;98788.44;6154165;23;20061;-80
2022/11/24 13:16:38;;;;;;;0.30;0.30;;;;;;;12.43;84.49;98732.00;6131058;23;20013;-80
2022/11/24 13:19:23;;;;;;;;;;;;;;;;;;;;;
2022/11/24 13:22:09;;;;;;;0.00;0.00;;;;;;;12.17;86.92;98719.03;6166011;23;20207;-80
2022/11/24 13:25:12;;;;;;;0.00;0.00;;;;;;;11.77;91.23;98716.28;6142606;23;20011;-82
2022/11/24 13:27:59;;;;;;;7.88;0.73;;;;;;;11.20;98.56;98695.88;6169503;23;20017;-77
2022/11/24 13:30:33;;;;;;;0.00;0.00;;;;;;;10.79;100.00;98716.00;6126713;23;20140;-76
2022/11/24 13:33:08;;;;;;;;;;;;;;;10.61;100.00;98710.38;6224862;22;20039;-78
2022/11/24 13:35:36;;;;;;;4.75;2.80;;;;;;;10.42;100.00;98693.34;6303183;22;19924;-78
2022/11/24 13:38:24;;;;;;;1.55;0.95;;;;;;;10.36;100.00;98692.63;6280345;22;20068;-78
2022/11/24 13:40:50;;;;;;;0.20;0.20;;;;;;;10.19;100.00;98687.78;6297005;22;20298;-77
2022/11/24 13:43:15;;;;;;;0.00;0.00;;;;;;;10.27;100.00;98678.84;6221386;22;20007;-76